createdAt,value
2018-04-01T00:00:21.726Z,1.80
2018-04-01T00:05:22.943Z,2.03
2018-04-01T00:10:24.151Z,2.30
2018-04-01T00:15:25.426Z,2.00
2018-04-01T00:20:26.485Z,2.27
2018-04-01T00:25:27.612Z,2.33
2018-04-01T00:30:28.760Z,1.57
2018-04-01T00:35:29.927Z,2.30
2018-04-01T00:40:31.041Z,1.80
2018-04-01T00:45:32.191Z,3.53
2018-04-01T00:50:34.160Z,2.07
2018-04-01T00:55:35.302Z,2.07
2018-04-01T01:00:36.493Z,2.37
2018-04-01T01:05:38.471Z,2.23
2018-04-01T01:10:40.350Z,1.70
2018-04-01T01:15:42.225Z,2.30
2018-04-01T01:20:44.084Z,1.80
2018-04-01T01:25:45.246Z,2.20
2018-04-01T01:30:46.408Z,1.67
2018-04-01T01:35:47.588Z,2.03
2018-04-01T01:40:48.727Z,2.20
2018-04-01T01:45:49.848Z,2.10
2018-04-01T01:50:51.008Z,2.00
2018-04-01T01:55:52.130Z,1.80
2018-04-01T02:00:53.280Z,2.17
2018-04-01T02:05:54.503Z,2.37
2018-04-01T02:10:55.647Z,2.27
2018-04-01T02:15:57.806Z,1.90
2018-04-01T02:20:59.774Z,2.60
2018-04-01T02:26:00.918Z,3.20
2018-04-01T02:31:02.061Z,2.90
2018-04-01T02:36:03.909Z,2.90
2018-04-01T02:41:05.049Z,3.40
2018-04-01T02:46:06.196Z,3.20
2018-04-01T02:51:07.484Z,3.33
2018-04-01T02:56:08.690Z,3.10
2018-04-01T03:01:09.827Z,4.13
2018-04-01T03:06:11.691Z,3.53
2018-04-01T03:11:12.836Z,4.23
2018-04-01T03:16:14.013Z,3.20
2018-04-01T03:21:15.149Z,3.53
2018-04-01T03:26:16.306Z,4.00
2018-04-01T03:31:17.452Z,4.17
2018-04-01T03:36:18.690Z,3.63
2018-04-01T03:41:19.923Z,4.70
2018-04-01T03:46:21.805Z,5.23
2018-04-01T03:51:22.948Z,5.80
2018-04-01T03:56:24.206Z,5.63
2018-04-01T04:01:26.104Z,6.13
2018-04-01T04:06:28.056Z,5.87
2018-04-01T04:11:29.260Z,6.60
2018-04-01T04:16:30.407Z,7.23
2018-04-01T04:21:31.533Z,7.80
2018-04-01T04:26:32.649Z,6.87
2018-04-01T04:31:33.791Z,5.67
2018-04-01T04:36:34.913Z,6.10
2018-04-01T04:41:36.052Z,6.03
2018-04-01T04:46:37.169Z,6.50
2018-04-01T04:51:38.308Z,6.60
2018-04-01T04:56:40.179Z,7.63
2018-04-01T05:01:42.037Z,6.60
2018-04-01T05:06:43.190Z,7.40
2018-04-01T05:11:44.313Z,7.50
2018-04-01T05:16:45.444Z,7.77
2018-04-01T05:21:46.561Z,8.30
2018-04-01T05:26:47.869Z,9.73
2018-04-01T05:31:49.019Z,9.53
2018-04-01T05:36:50.885Z,8.40
2018-04-01T05:41:52.817Z,8.60
2018-04-01T05:46:53.943Z,9.40
2018-04-01T05:51:55.053Z,9.23
2018-04-01T05:56:56.229Z,9.93
2018-04-01T06:01:58.107Z,9.40
2018-04-01T06:06:59.998Z,10.47
2018-04-01T06:12:01.133Z,10.63
2018-04-01T06:17:02.301Z,10.93
2018-04-01T06:22:03.415Z,11.10
2018-04-01T06:27:04.549Z,11.33
2018-04-01T06:32:05.685Z,12.10
2018-04-01T06:37:07.581Z,11.57
2018-04-01T06:42:08.729Z,9.60
2018-04-01T06:47:09.885Z,9.17
2018-04-01T06:52:11.791Z,8.60
2018-04-01T06:57:12.980Z,9.40
2018-04-01T07:02:14.300Z,8.00
2018-04-01T07:07:15.453Z,8.80
2018-04-01T07:12:16.564Z,8.93
2018-04-01T07:17:17.708Z,8.57
2018-04-01T07:22:18.880Z,9.67
2018-04-01T07:27:20.044Z,9.37
2018-04-01T07:32:21.173Z,9.30
2018-04-01T07:37:22.314Z,9.67
2018-04-01T07:42:23.466Z,10.50
2018-04-01T07:47:24.576Z,11.50
2018-04-01T07:52:25.754Z,11.40
2018-04-01T07:57:27.651Z,11.17
2018-04-01T08:02:28.867Z,10.30
2018-04-01T08:07:30.014Z,13.00
2018-04-01T08:12:31.326Z,12.10
2018-04-01T08:17:33.260Z,12.73
2018-04-01T08:22:34.404Z,11.80
2018-04-01T08:27:35.530Z,12.13
2018-04-01T08:32:36.655Z,10.73
2018-04-01T08:37:37.809Z,11.30
2018-04-01T08:42:38.982Z,11.40
2018-04-01T08:47:40.886Z,12.10
2018-04-01T08:52:42.789Z,10.80
2018-04-01T08:57:43.986Z,11.73
2018-04-01T09:02:45.161Z,11.60
2018-04-01T09:07:47.081Z,10.90
2018-04-01T09:12:48.262Z,11.10
2018-04-01T09:17:49.429Z,12.30
2018-04-01T09:22:50.611Z,11.87
2018-04-01T09:27:52.483Z,11.90
2018-04-01T09:32:53.638Z,9.50
2018-04-01T09:37:54.825Z,9.53
2018-04-01T09:42:55.949Z,8.90
2018-04-01T09:47:57.073Z,9.93
2018-04-01T09:52:58.368Z,7.67
2018-04-01T09:57:59.504Z,7.47
2018-04-01T10:03:01.098Z,7.43
2018-04-01T10:08:02.714Z,7.67
2018-04-01T10:13:04.306Z,7.17
2018-04-01T10:18:05.891Z,8.87
2018-04-01T10:23:07.432Z,7.60
2018-04-01T10:28:09.017Z,8.50
2018-04-01T10:33:10.742Z,5.10
2018-04-01T10:38:12.306Z,5.50
2018-04-01T10:43:13.927Z,5.60
2018-04-01T10:48:15.509Z,4.90
2018-04-01T10:53:17.105Z,5.53
2018-04-01T10:58:19.018Z,4.67
2018-04-01T11:03:20.231Z,6.20
2018-04-01T11:08:22.177Z,6.13
2018-04-01T11:13:23.354Z,6.37
2018-04-01T11:18:24.575Z,5.60
2018-04-01T11:23:25.751Z,6.80
2018-04-01T11:28:26.972Z,5.37
2018-04-01T11:33:28.153Z,5.63
2018-04-01T11:38:29.295Z,4.80
2018-04-01T11:43:30.441Z,5.17
2018-04-01T11:48:32.334Z,4.53
2018-04-01T11:53:33.516Z,5.60
2018-04-01T11:58:34.746Z,4.60
2018-04-01T12:03:35.881Z,5.43
2018-04-01T12:08:37.053Z,4.70
2018-04-01T12:13:38.238Z,4.03
2018-04-01T12:18:39.388Z,4.80
2018-04-01T12:23:40.530Z,3.73
2018-04-01T12:28:42.424Z,5.03
2018-04-01T12:33:43.573Z,4.70
2018-04-01T12:38:44.842Z,4.70
2018-04-01T12:43:46.201Z,4.57
2018-04-01T12:48:47.363Z,5.10
2018-04-01T12:53:48.501Z,4.93
2018-04-01T12:58:50.445Z,4.13
2018-04-01T13:03:52.369Z,5.20
2018-04-01T13:08:54.246Z,4.77
2018-04-01T13:13:55.379Z,4.10
2018-04-01T13:18:56.529Z,4.00
2018-04-01T13:23:57.650Z,4.63
2018-04-01T13:28:58.742Z,4.13
2018-04-01T13:33:59.858Z,4.03
2018-04-01T13:39:00.962Z,5.03
2018-04-01T13:44:02.052Z,4.90
2018-04-01T13:49:03.158Z,6.00
2018-04-01T13:54:04.281Z,4.17
2018-04-01T13:59:05.458Z,6.00
2018-04-01T14:04:06.559Z,5.30
2018-04-01T14:09:07.683Z,5.00
2018-04-01T14:14:08.828Z,5.27
2018-04-01T14:19:10.004Z,4.80
2018-04-01T14:24:11.235Z,5.10
2018-04-01T14:29:12.404Z,5.57
2018-04-01T14:34:13.564Z,6.00
2018-04-01T14:39:14.752Z,4.90
2018-04-01T14:44:15.918Z,5.17
2018-04-01T14:49:17.080Z,5.27
2018-04-01T14:54:18.312Z,6.00
2018-04-01T14:59:19.467Z,5.40
2018-04-01T15:04:20.630Z,6.30
2018-04-01T15:09:21.770Z,5.40
2018-04-01T15:14:23.810Z,6.27
2018-04-01T15:19:24.877Z,4.97
2018-04-01T15:24:26.775Z,5.50
2018-04-01T15:29:27.919Z,6.43
2018-04-01T15:34:29.821Z,7.30
2018-04-01T15:39:31.006Z,10.80
2018-04-01T15:44:32.250Z,11.40
2018-04-01T15:49:33.457Z,11.50
2018-04-01T15:54:34.608Z,11.30
2018-04-01T15:59:35.741Z,12.70
2018-04-01T16:04:36.878Z,11.50
2018-04-01T16:09:38.036Z,12.20
2018-04-01T16:14:39.225Z,11.83
2018-04-01T16:19:40.391Z,11.60
2018-04-01T16:24:41.573Z,12.10
2018-04-01T16:29:42.775Z,11.10
2018-04-01T16:34:43.892Z,11.90
2018-04-01T16:39:44.988Z,11.87
2018-04-01T16:44:46.115Z,11.03
2018-04-01T16:49:47.935Z,11.20
2018-04-01T16:54:49.038Z,10.23
2018-04-01T16:59:50.097Z,10.40
2018-04-01T17:04:51.261Z,10.73
2018-04-01T17:09:53.131Z,11.60
2018-04-01T17:14:54.283Z,11.37
2018-04-01T17:19:55.430Z,11.60
2018-04-01T17:24:56.553Z,10.77
2018-04-01T17:29:57.660Z,12.43
2018-04-01T17:34:58.750Z,12.97
2018-04-01T17:39:59.878Z,13.97
2018-04-01T17:45:00.995Z,12.60
2018-04-01T17:50:02.164Z,12.73
2018-04-01T17:55:03.323Z,14.97
2018-04-01T18:00:04.484Z,13.60
2018-04-01T18:05:05.641Z,13.97
2018-04-01T18:10:06.781Z,13.90
2018-04-01T18:15:07.965Z,14.30
2018-04-01T18:20:09.126Z,14.70
2018-04-01T18:25:10.259Z,13.73
2018-04-01T18:30:11.389Z,14.17
2018-04-01T18:35:13.301Z,14.50
2018-04-01T18:40:14.534Z,15.90
2018-04-01T18:45:15.629Z,18.70
2018-04-01T18:50:16.964Z,22.23
2018-04-01T18:55:18.132Z,19.67
2018-04-01T19:00:19.392Z,16.67
2018-04-01T19:05:20.609Z,20.53
2018-04-01T19:10:22.022Z,21.17
2018-04-01T19:15:23.144Z,26.13
2018-04-01T19:20:25.856Z,25.83
2018-04-01T19:25:27.416Z,23.47
2018-04-01T19:30:29.900Z,23.07
2018-04-01T19:35:32.526Z,23.60
2018-04-01T19:40:34.330Z,23.60
2018-04-01T19:45:36.294Z,23.23
2018-04-01T19:50:38.162Z,22.73
2018-04-01T19:55:40.031Z,26.07
2018-04-01T20:00:41.722Z,23.53
2018-04-01T20:05:44.487Z,23.93
2018-04-01T20:10:46.411Z,23.40
2018-04-01T20:15:47.998Z,23.27
2018-04-01T20:20:49.605Z,24.73
2018-04-01T20:25:51.169Z,27.17
2018-04-01T20:30:52.741Z,25.10
2018-04-01T20:35:54.523Z,24.90
2018-04-01T20:40:56.121Z,27.60
2018-04-01T20:45:57.691Z,26.90
2018-04-01T20:50:59.425Z,29.20
2018-04-01T20:56:01.080Z,30.20
2018-04-01T21:01:03.482Z,27.50
2018-04-01T21:06:05.093Z,29.50
2018-04-01T21:11:06.873Z,27.87
2018-04-01T21:16:08.497Z,28.10
2018-04-01T21:21:09.999Z,29.90
2018-04-01T21:26:11.628Z,27.13
2018-04-01T21:31:13.241Z,30.10
2018-04-01T21:36:14.794Z,30.40
2018-04-01T21:41:16.382Z,27.90
2018-04-01T21:46:18.166Z,28.20
2018-04-01T21:51:19.713Z,29.57
2018-04-01T21:56:21.252Z,28.30
2018-04-01T22:01:22.960Z,30.27
2018-04-01T22:06:24.540Z,32.70
2018-04-01T22:11:26.087Z,30.90
2018-04-01T22:16:27.644Z,31.47
2018-04-01T22:21:29.425Z,33.07
2018-04-01T22:26:31.007Z,31.80
2018-04-01T22:31:32.572Z,31.63
2018-04-01T22:36:34.241Z,33.70
2018-04-01T22:41:35.792Z,35.70
2018-04-01T22:46:37.349Z,32.83
2018-04-01T22:51:38.915Z,32.50
2018-04-01T22:56:40.612Z,33.50
2018-04-01T23:01:42.181Z,34.20
2018-04-01T23:06:43.766Z,31.50
2018-04-01T23:11:45.308Z,31.97
2018-04-01T23:16:46.856Z,35.00
2018-04-01T23:21:48.486Z,35.10
2018-04-01T23:26:50.069Z,34.50
2018-04-01T23:31:52.375Z,33.37
2018-04-01T23:36:54.071Z,37.00
2018-04-01T23:41:55.634Z,36.13
2018-04-01T23:46:57.184Z,32.87
2018-04-01T23:51:58.820Z,38.07
2018-04-01T23:57:00.384Z,37.17
